Time;durP1;ratioP1;P1;durP2;ratioP2;P2;SDS_P1;SDS_P2;PMS_P1;PMS_P2;Temp;Humidity;BMP_temperature;BMP_pressure;BME280_temperature;BME280_humidity;BME280_pressure;Samples;Min_cycle;Max_cycle;Signal;HPM_P1;HPM_P2
2022/03/24 00:02:06;;;;;;;22.42;13.65;;;;;;;;;;5074786;28;20492;-64
2022/03/24 00:04:32;;;;;;;20.75;13.90;;;;;;;;;;5074868;28;20051;-64
2022/03/24 00:06:58;;;;;;;24.08;13.45;;;;;;;;;;5075154;28;20037;-64
2022/03/24 00:09:25;;;;;;;20.42;12.48;;;;;;;;;;5074869;28;20038;-64
2022/03/24 00:11:51;;;;;;;31.67;14.70;;;;;;;;;;5074800;28;20077;-64
2022/03/24 00:14:17;;;;;;;26.75;14.23;;;;;;;;;;5074386;28;20067;-64
2022/03/24 00:16:44;;;;;;;26.58;12.60;;;;;;;;;;5074588;28;20634;-63
2022/03/24 00:19:10;;;;;;;22.63;13.63;;;;;;;;;;5074773;28;20047;-63
2022/03/24 00:21:36;;;;;;;28.98;13.85;;;;;;;;;;5074605;28;20040;-63
2022/03/24 00:24:03;;;;;;;24.45;13.45;;;;;;;;;;5074709;28;20016;-63
2022/03/24 00:26:29;;;;;;;25.92;14.07;;;;;;;;;;5074520;28;20050;-64
2022/03/24 00:28:55;;;;;;;27.70;14.25;;;;;;;;;;5074713;28;20040;-64
2022/03/24 00:31:22;;;;;;;24.02;14.43;;;;;;;;;;5073306;28;20389;-64
2022/03/24 00:33:48;;;;;;;23.25;14.48;;;;;;;;;;5073870;28;20048;-64
2022/03/24 00:36:15;;;;;;;29.23;15.43;;;;;;;;;;5073839;28;20032;-64
2022/03/24 00:38:42;;;;;;;25.40;13.20;;;;;;;;;;5074235;28;20384;-64
2022/03/24 00:41:08;;;;;;;24.98;14.15;;;;;;;;;;5072910;28;20047;-64
2022/03/24 00:43:34;;;;;;;22.13;13.30;;;;;;;;;;5072722;28;20017;-64
2022/03/24 00:46:00;;;;;;;26.80;14.38;;;;;;;;;;5073885;28;20029;-64
2022/03/24 00:48:27;;;;;;;24.25;13.90;;;;;;;;;;5073902;28;20416;-64
2022/03/24 00:50:53;;;;;;;27.05;14.88;;;;;;;;;;5074210;28;20039;-64
2022/03/24 00:53:19;;;;;;;37.80;16.63;;;;;;;;;;5072251;28;20480;-64
2022/03/24 00:55:45;;;;;;;28.17;16.85;;;;;;;;;;5073768;28;20091;-64
2022/03/24 00:58:13;;;;;;;31.92;17.73;;;;;;;;;;5073876;28;20499;-64
2022/03/24 01:00:40;;;;;;;31.15;17.25;;;;;;;;;;5073474;28;20040;-64
2022/03/24 01:03:09;;;;;;;29.75;17.70;;;;;;;;;;5072431;28;20071;-64
2022/03/24 01:05:37;;;;;;;26.33;16.33;;;;;;;;;;5072007;28;20017;-64
2022/03/24 01:08:05;;;;;;;25.05;14.60;;;;;;;;;;5073602;28;20046;-64
2022/03/24 01:10:32;;;;;;;25.65;14.75;;;;;;;;;;5071082;28;20028;-64
2022/03/24 01:13:01;;;;;;;32.65;16.40;;;;;;;;;;5073538;28;20052;-64
2022/03/24 01:15:30;;;;;;;30.02;17.77;;;;;;;;;;5072694;28;20027;-64
2022/03/24 01:17:59;;;;;;;33.75;17.67;;;;;;;;;;5073372;28;20033;-64
2022/03/24 01:20:26;;;;;;;29.70;17.27;;;;;;;;;;5073028;28;20024;-64
2022/03/24 01:22:52;;;;;;;32.03;17.63;;;;;;;;;;5073460;28;20086;-64
2022/03/24 01:25:19;;;;;;;26.58;16.52;;;;;;;;;;5073077;28;20141;-64
2022/03/24 01:27:46;;;;;;;28.20;16.73;;;;;;;;;;5072017;28;20017;-64
2022/03/24 01:30:12;;;;;;;32.00;16.55;;;;;;;;;;5072721;28;20537;-64
2022/03/24 01:32:39;;;;;;;32.53;17.30;;;;;;;;;;5073036;28;20025;-64
2022/03/24 01:35:07;;;;;;;32.60;16.83;;;;;;;;;;5071812;28;20060;-64
2022/03/24 01:37:35;;;;;;;28.55;16.60;;;;;;;;;;5072539;28;20401;-64
2022/03/24 01:40:03;;;;;;;27.75;15.50;;;;;;;;;;5073103;28;20385;-64
2022/03/24 01:42:30;;;;;;;29.10;17.13;;;;;;;;;;5072736;28;20725;-64
2022/03/24 01:44:57;;;;;;;47.08;16.58;;;;;;;;;;5071313;28;20107;-64
2022/03/24 01:47:23;;;;;;;26.50;15.55;;;;;;;;;;5072610;28;20039;-64
2022/03/24 01:49:50;;;;;;;29.95;15.57;;;;;;;;;;5071454;28;20028;-64
2022/03/24 01:52:19;;;;;;;29.08;14.73;;;;;;;;;;5071563;28;20021;-64
2022/03/24 01:54:54;;;;;;;28.58;15.73;;;;;;;;;;5072851;28;20028;-64
2022/03/24 01:57:21;;;;;;;28.63;15.20;;;;;;;;;;5051344;28;20029;-64
2022/03/24 01:59:51;;;;;;;25.73;14.70;;;;;;;;;;5054993;28;20021;-64
2022/03/24 02:02:17;;;;;;;30.67;15.10;;;;;;;;;;5071177;28;20028;-64
2022/03/24 02:04:43;;;;;;;26.63;14.55;;;;;;;;;;5071254;28;20477;-64
2022/03/24 02:07:11;;;;;;;26.83;14.32;;;;;;;;;;5071299;28;20043;-64
2022/03/24 02:09:38;;;;;;;29.13;15.63;;;;;;;;;;5070628;28;20024;-64
2022/03/24 02:12:05;;;;;;;30.67;15.18;;;;;;;;;;5071298;28;20145;-64
2022/03/24 02:14:31;;;;;;;27.13;15.52;;;;;;;;;;5070429;28;20083;-64
2022/03/24 02:16:58;;;;;;;32.05;16.67;;;;;;;;;;5071010;28;20025;-64
2022/03/24 02:19:26;;;;;;;30.08;16.17;;;;;;;;;;5072123;28;20582;-64
2022/03/24 02:21:57;;;;;;;30.45;16.58;;;;;;;;;;5070921;28;20051;-64
2022/03/24 02:24:24;;;;;;;28.85;16.08;;;;;;;;;;5072143;28;20377;-64
2022/03/24 02:26:51;;;;;;;37.90;15.90;;;;;;;;;;5071937;28;20024;-64
2022/03/24 02:29:18;;;;;;;23.40;14.20;;;;;;;;;;5072369;28;20416;-64
2022/03/24 02:31:48;;;;;;;29.13;15.57;;;;;;;;;;5071341;28;20150;-63
2022/03/24 02:37:02;;;;;;;27.67;16.23;;;;;;;;;;5065390;28;20029;-63
2022/03/24 02:39:28;;;;;;;26.45;16.38;;;;;;;;;;5071597;28;20032;-63
2022/03/24 02:41:55;;;;;;;29.52;17.35;;;;;;;;;;5071468;28;20091;-64
2022/03/24 02:44:26;;;;;;;28.65;15.82;;;;;;;;;;5071965;28;20025;-64
2022/03/24 02:46:53;;;;;;;28.83;15.98;;;;;;;;;;5071962;28;20029;-64
2022/03/24 02:49:22;;;;;;;25.98;15.18;;;;;;;;;;5071976;28;20036;-64
2022/03/24 02:51:50;;;;;;;29.52;17.48;;;;;;;;;;5071685;28;20028;-64
2022/03/24 02:54:17;;;;;;;28.00;16.33;;;;;;;;;;5071914;28;20097;-64
2022/03/24 02:56:43;;;;;;;28.17;16.33;;;;;;;;;;5071380;28;20086;-64
2022/03/24 02:59:10;;;;;;;28.65;16.50;;;;;;;;;;5071866;28;20021;-64
2022/03/24 03:01:45;;;;;;;33.10;16.98;;;;;;;;;;5071587;28;20070;-64
2022/03/24 03:04:15;;;;;;;30.40;15.52;;;;;;;;;;5071687;28;20025;-64
2022/03/24 03:06:41;;;;;;;27.50;16.65;;;;;;;;;;5071762;28;20028;-64
2022/03/24 03:09:08;;;;;;;28.52;15.55;;;;;;;;;;5071661;28;20521;-64
2022/03/24 03:11:34;;;;;;;25.45;14.93;;;;;;;;;;5071144;28;20027;-64
2022/03/24 03:14:01;;;;;;;29.17;15.23;;;;;;;;;;5071583;28;20068;-64
2022/03/24 03:16:27;;;;;;;30.17;14.65;;;;;;;;;;5071407;28;20041;-64
2022/03/24 03:18:55;;;;;;;26.63;15.30;;;;;;;;;;5071579;28;20028;-64
2022/03/24 03:21:22;;;;;;;26.42;13.68;;;;;;;;;;5071746;28;20024;-64
2022/03/24 03:23:48;;;;;;;25.77;14.60;;;;;;;;;;5071070;28;20106;-64
2022/03/24 03:26:16;;;;;;;24.48;14.60;;;;;;;;;;5071385;28;20016;-64
2022/03/24 03:28:42;;;;;;;25.60;15.45;;;;;;;;;;5071447;28;20369;-64
2022/03/24 03:31:08;;;;;;;27.92;14.48;;;;;;;;;;5071473;28;20054;-64
2022/03/24 03:33:36;;;;;;;31.35;16.02;;;;;;;;;;5073556;28;20120;-64
2022/03/24 03:36:03;;;;;;;26.92;14.48;;;;;;;;;;5075514;28;20447;-64
2022/03/24 03:38:30;;;;;;;24.98;14.88;;;;;;;;;;5075304;28;20025;-64
2022/03/24 03:40:57;;;;;;;27.73;14.88;;;;;;;;;;5075097;28;20075;-64
2022/03/24 03:43:23;;;;;;;27.08;15.52;;;;;;;;;;5075284;28;20032;-64
2022/03/24 03:45:50;;;;;;;24.20;13.98;;;;;;;;;;5074674;28;20046;-64
2022/03/24 03:48:16;;;;;;;27.25;14.00;;;;;;;;;;5075192;28;20025;-64
2022/03/24 03:50:43;;;;;;;24.83;14.93;;;;;;;;;;5074822;28;20021;-64
2022/03/24 03:53:10;;;;;;;29.85;14.73;;;;;;;;;;5075072;28;20056;-64
2022/03/24 03:55:39;;;;;;;27.80;14.73;;;;;;;;;;5074475;28;20401;-64
2022/03/24 03:58:06;;;;;;;24.38;14.32;;;;;;;;;;5075033;28;20036;-64
2022/03/24 04:03:18;;;;;;;22.83;14.13;;;;;;;;;;5074772;28;20020;-64
2022/03/24 04:05:44;;;;;;;24.40;14.52;;;;;;;;;;5074457;28;20392;-64
2022/03/24 04:08:10;;;;;;;29.23;15.80;;;;;;;;;;5073587;28;20021;-64
2022/03/24 04:10:38;;;;;;;25.40;15.05;;;;;;;;;;5074523;28;20115;-64
2022/03/24 04:13:04;;;;;;;22.95;14.07;;;;;;;;;;5074619;28;20025;-64
2022/03/24 04:15:31;;;;;;;30.58;15.52;;;;;;;;;;5074877;28;20057;-64
2022/03/24 04:17:57;;;;;;;28.95;15.13;;;;;;;;;;5074442;28;20033;-64
2022/03/24 04:20:23;;;;;;;28.17;15.60;;;;;;;;;;5074558;28;20117;-64
2022/03/24 04:22:50;;;;;;;26.55;15.57;;;;;;;;;;5073985;28;20108;-64
2022/03/24 04:25:20;;;;;;;25.98;15.10;;;;;;;;;;5074537;28;20054;-64
2022/03/24 04:27:47;;;;;;;27.60;14.20;;;;;;;;;;5074050;28;20399;-64
2022/03/24 04:30:13;;;;;;;27.65;14.52;;;;;;;;;;5074544;28;20017;-64
2022/03/24 04:32:39;;;;;;;25.50;14.45;;;;;;;;;;5073612;28;20365;-64
2022/03/24 04:35:06;;;;;;;22.40;14.23;;;;;;;;;;5074243;28;20029;-64
2022/03/24 04:37:32;;;;;;;25.67;14.25;;;;;;;;;;5074285;28;20373;-64
2022/03/24 04:39:58;;;;;;;25.80;13.82;;;;;;;;;;5073871;28;20452;-64
2022/03/24 04:42:24;;;;;;;27.58;13.60;;;;;;;;;;5074220;28;20050;-64
2022/03/24 04:44:50;;;;;;;24.50;13.43;;;;;;;;;;5073661;28;20016;-64
2022/03/24 04:47:17;;;;;;;24.50;13.55;;;;;;;;;;5074165;28;20029;-64
2022/03/24 04:49:43;;;;;;;22.77;13.77;;;;;;;;;;5073865;28;20112;-64
2022/03/24 04:52:10;;;;;;;24.30;13.70;;;;;;;;;;5073810;28;20028;-64
2022/03/24 04:54:36;;;;;;;31.35;14.75;;;;;;;;;;5074212;28;20033;-64
2022/03/24 04:57:02;;;;;;;23.30;14.05;;;;;;;;;;5073368;28;20154;-64
2022/03/24 04:59:28;;;;;;;26.38;15.38;;;;;;;;;;5073844;28;20028;-64
2022/03/24 05:01:55;;;;;;;24.17;14.45;;;;;;;;;;5073464;28;20439;-64
2022/03/24 05:04:23;;;;;;;26.00;15.45;;;;;;;;;;5073826;28;20025;-64
2022/03/24 05:06:50;;;;;;;23.40;14.82;;;;;;;;;;5073133;28;20021;-64
2022/03/24 05:09:16;;;;;;;29.63;15.82;;;;;;;;;;5073915;28;20029;-64
2022/03/24 05:11:42;;;;;;;28.48;15.25;;;;;;;;;;5073448;28;20097;-64
2022/03/24 05:14:08;;;;;;;27.58;15.90;;;;;;;;;;5073246;28;20378;-64
2022/03/24 05:16:35;;;;;;;35.72;14.32;;;;;;;;;;5073629;28;20032;-64
2022/03/24 05:19:01;;;;;;;25.52;14.88;;;;;;;;;;5073143;28;20435;-64
2022/03/24 05:21:27;;;;;;;25.95;14.63;;;;;;;;;;5073268;28;20026;-64
2022/03/24 05:23:54;;;;;;;24.13;14.35;;;;;;;;;;5072940;28;20028;-64
2022/03/24 05:26:24;;;;;;;23.58;14.10;;;;;;;;;;5073512;28;20107;-64
2022/03/24 05:28:54;;;;;;;24.83;14.05;;;;;;;;;;5073138;28;20032;-64
2022/03/24 05:31:20;;;;;;;27.92;14.57;;;;;;;;;;5073469;28;20021;-64
2022/03/24 05:33:47;;;;;;;23.42;13.40;;;;;;;;;;5073164;28;20028;-63
2022/03/24 05:36:15;;;;;;;28.27;13.95;;;;;;;;;;5072702;28;20055;-63
2022/03/24 05:38:41;;;;;;;23.35;14.13;;;;;;;;;;5073278;28;20472;-63
2022/03/24 05:41:13;;;;;;;26.33;14.98;;;;;;;;;;5072728;28;20038;-63
2022/03/24 05:43:39;;;;;;;28.23;14.15;;;;;;;;;;5072926;28;20029;-63
2022/03/24 05:46:05;;;;;;;22.33;13.25;;;;;;;;;;5072848;28;20035;-63
2022/03/24 05:48:33;;;;;;;24.63;14.00;;;;;;;;;;5072924;28;20036;-63
2022/03/24 05:51:18;;;;;;;28.17;13.95;;;;;;;;;;5060204;28;20024;-64
2022/03/24 05:53:44;;;;;;;21.15;12.65;;;;;;;;;;5067643;28;20595;-64
2022/03/24 05:56:10;;;;;;;22.98;13.45;;;;;;;;;;5072177;28;20028;-64
2022/03/24 05:58:37;;;;;;;22.60;13.70;;;;;;;;;;5073075;28;20105;-64
2022/03/24 06:01:05;;;;;;;28.73;13.90;;;;;;;;;;5068704;28;20028;-64
2022/03/24 06:03:31;;;;;;;25.33;13.88;;;;;;;;;;5071466;28;20024;-64
2022/03/24 06:05:59;;;;;;;28.65;13.52;;;;;;;;;;5063964;28;20385;-64
2022/03/24 06:08:25;;;;;;;25.42;13.13;;;;;;;;;;5070755;28;20034;-64
2022/03/24 06:10:51;;;;;;;23.27;13.50;;;;;;;;;;5071546;28;20362;-64
2022/03/24 06:13:18;;;;;;;25.27;12.48;;;;;;;;;;5066134;28;20165;-64
2022/03/24 06:15:45;;;;;;;24.27;13.68;;;;;;;;;;5067909;28;20553;-64
2022/03/24 06:18:12;;;;;;;26.10;13.82;;;;;;;;;;5071654;28;20503;-64
2022/03/24 06:20:38;;;;;;;30.33;14.95;;;;;;;;;;5067700;28;20028;-64
2022/03/24 06:23:04;;;;;;;22.17;12.68;;;;;;;;;;5070964;28;20020;-64
2022/03/24 06:25:30;;;;;;;21.63;13.52;;;;;;;;;;5071035;28;20020;-64
2022/03/24 06:27:57;;;;;;;21.85;12.70;;;;;;;;;;5069846;28;20450;-64
2022/03/24 06:30:25;;;;;;;21.00;12.32;;;;;;;;;;5068961;28;20056;-64
2022/03/24 06:32:52;;;;;;;27.55;15.25;;;;;;;;;;5067252;28;20051;-63
2022/03/24 06:35:19;;;;;;;22.23;12.55;;;;;;;;;;5067988;28;20078;-64
2022/03/24 06:37:45;;;;;;;30.42;14.63;;;;;;;;;;5068633;28;20047;-64
2022/03/24 06:40:12;;;;;;;25.40;13.23;;;;;;;;;;5066402;28;20021;-64
2022/03/24 06:42:39;;;;;;;25.35;14.23;;;;;;;;;;5068234;28;20078;-64
2022/03/24 06:45:06;;;;;;;24.45;13.02;;;;;;;;;;5065648;28;20029;-64
2022/03/24 06:47:32;;;;;;;33.05;13.52;;;;;;;;;;5067730;28;20024;-64
2022/03/24 06:49:59;;;;;;;27.48;13.82;;;;;;;;;;5065670;28;20079;-64
2022/03/24 06:52:25;;;;;;;26.35;14.18;;;;;;;;;;5062528;28;20021;-64
2022/03/24 06:54:51;;;;;;;23.13;14.23;;;;;;;;;;5064549;28;20393;-64
2022/03/24 06:57:17;;;;;;;31.05;14.90;;;;;;;;;;5066662;28;20446;-64
2022/03/24 06:59:44;;;;;;;36.50;17.45;;;;;;;;;;5070512;28;20021;-64
2022/03/24 07:02:10;;;;;;;30.10;16.70;;;;;;;;;;5069490;28;20029;-63
2022/03/24 07:04:36;;;;;;;27.13;15.02;;;;;;;;;;5067382;28;20032;-63
2022/03/24 07:07:04;;;;;;;31.73;15.68;;;;;;;;;;5066783;28;20028;-63
2022/03/24 07:09:30;;;;;;;30.58;14.50;;;;;;;;;;5067029;28;20037;-64
2022/03/24 07:11:57;;;;;;;32.65;16.80;;;;;;;;;;5062216;28;20493;-64
2022/03/24 07:14:24;;;;;;;28.33;15.50;;;;;;;;;;5056935;28;20140;-64
2022/03/24 07:16:51;;;;;;;32.40;15.80;;;;;;;;;;5061032;28;20033;-64
2022/03/24 07:19:19;;;;;;;24.63;14.88;;;;;;;;;;5060085;28;20461;-64
2022/03/24 07:21:46;;;;;;;30.75;16.27;;;;;;;;;;5067715;28;20025;-64
2022/03/24 07:24:13;;;;;;;27.67;16.02;;;;;;;;;;5064578;28;20033;-64
2022/03/24 07:26:39;;;;;;;30.55;16.27;;;;;;;;;;5068387;28;20016;-64
2022/03/24 07:29:05;;;;;;;28.55;14.48;;;;;;;;;;5070210;28;20029;-64
2022/03/24 07:31:32;;;;;;;27.70;15.68;;;;;;;;;;5081476;28;20024;-64
2022/03/24 07:33:58;;;;;;;26.63;15.43;;;;;;;;;;5076318;28;20058;-64
2022/03/24 07:36:25;;;;;;;27.40;15.55;;;;;;;;;;5078526;28;20074;-64
2022/03/24 07:38:55;;;;;;;30.95;15.63;;;;;;;;;;5086303;28;20039;-64
2022/03/24 07:41:22;;;;;;;30.88;16.05;;;;;;;;;;5078001;28;20108;-64
2022/03/24 07:43:48;;;;;;;31.67;16.50;;;;;;;;;;5070385;28;20056;-64
2022/03/24 07:46:15;;;;;;;29.85;15.38;;;;;;;;;;5072038;28;20119;-66
2022/03/24 07:48:46;;;;;;;29.08;15.57;;;;;;;;;;5067032;28;20392;-65
2022/03/24 07:51:12;;;;;;;26.73;15.55;;;;;;;;;;5076918;28;20438;-65
2022/03/24 07:53:38;;;;;;;28.83;14.90;;;;;;;;;;5074781;28;20051;-65
2022/03/24 07:56:04;;;;;;;34.78;16.65;;;;;;;;;;5078019;28;20036;-65
2022/03/24 07:58:31;;;;;;;27.98;15.38;;;;;;;;;;5073839;28;20094;-65
2022/03/24 08:00:57;;;;;;;28.73;16.92;;;;;;;;;;5074947;28;20032;-65
2022/03/24 08:03:24;;;;;;;27.10;15.45;;;;;;;;;;5068103;28;20518;-65
2022/03/24 08:05:50;;;;;;;29.88;16.10;;;;;;;;;;5072293;28;20507;-65
2022/03/24 08:08:17;;;;;;;26.02;15.13;;;;;;;;;;5066995;28;20055;-65
2022/03/24 08:10:44;;;;;;;32.28;16.83;;;;;;;;;;5074058;28;20024;-65
2022/03/24 08:13:13;;;;;;;30.73;17.05;;;;;;;;;;5077097;28;20131;-65
2022/03/24 08:15:39;;;;;;;26.73;15.82;;;;;;;;;;5071747;28;20127;-65
2022/03/24 08:18:06;;;;;;;40.70;16.75;;;;;;;;;;5075951;28;20479;-65
2022/03/24 08:20:33;;;;;;;28.58;16.60;;;;;;;;;;5068789;28;20028;-65
2022/03/24 08:23:00;;;;;;;26.65;15.88;;;;;;;;;;5070729;28;20032;-65
2022/03/24 08:25:26;;;;;;;35.13;16.55;;;;;;;;;;5069431;28;20037;-65
2022/03/24 08:27:52;;;;;;;30.20;17.83;;;;;;;;;;5071106;28;21488;-65
2022/03/24 08:30:18;;;;;;;32.75;17.98;;;;;;;;;;5068035;28;20024;-66
2022/03/24 08:32:45;;;;;;;30.00;17.60;;;;;;;;;;5080782;28;20492;-66
2022/03/24 08:35:11;;;;;;;30.10;16.52;;;;;;;;;;5065081;28;20060;-65
2022/03/24 08:37:37;;;;;;;28.27;17.13;;;;;;;;;;5070541;28;20028;-65
2022/03/24 08:40:04;;;;;;;31.35;17.17;;;;;;;;;;5071673;28;20392;-65
2022/03/24 08:42:30;;;;;;;40.85;18.35;;;;;;;;;;5074655;28;20027;-65
2022/03/24 08:44:57;;;;;;;31.15;18.05;;;;;;;;;;5067018;28;20396;-65
2022/03/24 08:47:23;;;;;;;34.45;18.27;;;;;;;;;;5066518;28;20353;-65
2022/03/24 08:49:49;;;;;;;31.88;18.55;;;;;;;;;;5067802;28;20091;-65
2022/03/24 08:52:15;;;;;;;35.88;20.45;;;;;;;;;;5073483;28;20021;-65
2022/03/24 08:54:41;;;;;;;33.20;18.35;;;;;;;;;;5067951;28;20055;-65
2022/03/24 08:57:08;;;;;;;39.17;20.17;;;;;;;;;;5073433;28;20035;-66
2022/03/24 08:59:35;;;;;;;40.80;20.20;;;;;;;;;;5073495;28;20550;-67
2022/03/24 09:02:01;;;;;;;40.58;22.40;;;;;;;;;;5072200;28;20112;-66
2022/03/24 09:04:27;;;;;;;40.60;21.67;;;;;;;;;;5067522;28;20075;-66
2022/03/24 09:06:54;;;;;;;46.38;21.98;;;;;;;;;;5073329;28;20032;-66
2022/03/24 09:09:22;;;;;;;48.92;21.48;;;;;;;;;;5067810;28;20115;-66
2022/03/24 09:11:51;;;;;;;42.25;22.02;;;;;;;;;;5069839;28;20021;-66
2022/03/24 09:14:19;;;;;;;43.30;21.15;;;;;;;;;;5067246;28;20044;-66
2022/03/24 09:16:45;;;;;;;41.67;21.60;;;;;;;;;;5062392;28;20061;-66
2022/03/24 09:19:12;;;;;;;39.58;22.38;;;;;;;;;;5077882;28;20025;-66
2022/03/24 09:21:38;;;;;;;46.30;22.73;;;;;;;;;;5074796;28;20123;-66
2022/03/24 09:24:05;;;;;;;48.00;24.92;;;;;;;;;;5071212;28;20050;-66
2022/03/24 09:26:31;;;;;;;47.15;24.48;;;;;;;;;;5073254;28;20036;-66
2022/03/24 09:28:58;;;;;;;44.55;23.58;;;;;;;;;;5079198;28;20024;-66
2022/03/24 09:31:24;;;;;;;51.38;25.48;;;;;;;;;;5074303;28;20028;-66
2022/03/24 09:33:50;;;;;;;44.08;24.55;;;;;;;;;;5070770;28;20538;-66
2022/03/24 09:36:16;;;;;;;43.47;24.55;;;;;;;;;;5072922;28;20107;-66
2022/03/24 09:38:43;;;;;;;46.22;25.65;;;;;;;;;;5073798;28;20020;-66
2022/03/24 09:41:10;;;;;;;50.50;25.55;;;;;;;;;;5074417;28;20055;-66
2022/03/24 09:43:37;;;;;;;45.75;25.67;;;;;;;;;;5069764;28;20149;-66
2022/03/24 09:46:03;;;;;;;43.53;24.70;;;;;;;;;;5071940;28;20350;-66
2022/03/24 09:48:30;;;;;;;48.42;27.02;;;;;;;;;;5070709;28;20090;-66
2022/03/24 09:50:56;;;;;;;52.58;26.45;;;;;;;;;;5072562;28;20046;-66
2022/03/24 09:53:23;;;;;;;54.53;28.05;;;;;;;;;;5069600;28;20481;-66
2022/03/24 09:55:49;;;;;;;52.30;26.38;;;;;;;;;;5069851;28;20019;-66
2022/03/24 09:58:16;;;;;;;51.78;28.33;;;;;;;;;;5070676;28;20039;-66
2022/03/24 10:00:42;;;;;;;49.30;25.52;;;;;;;;;;5070535;28;20029;-66
2022/03/24 10:03:09;;;;;;;46.33;25.95;;;;;;;;;;5070746;28;20043;-66
2022/03/24 10:05:35;;;;;;;54.15;28.35;;;;;;;;;;5071604;28;20025;-66
2022/03/24 10:08:05;;;;;;;47.08;26.73;;;;;;;;;;5070864;28;20119;-66
2022/03/24 10:10:34;;;;;;;50.30;27.75;;;;;;;;;;5075751;28;20028;-66
2022/03/24 10:13:04;;;;;;;53.88;29.40;;;;;;;;;;5075055;28;20051;-66
2022/03/24 10:15:30;;;;;;;52.80;27.48;;;;;;;;;;5071221;28;20044;-66
2022/03/24 10:17:58;;;;;;;59.33;27.60;;;;;;;;;;5068448;28;20119;-66
2022/03/24 10:20:28;;;;;;;56.75;28.48;;;;;;;;;;5067966;28;20044;-66
2022/03/24 10:23:05;;;;;;;49.35;25.80;;;;;;;;;;5068996;28;20016;-66
2022/03/24 10:25:33;;;;;;;46.75;25.23;;;;;;;;;;5068687;28;20027;-66
2022/03/24 10:28:06;;;;;;;53.40;26.95;;;;;;;;;;5076131;28;20051;-66
2022/03/24 10:30:52;;;;;;;55.53;28.27;;;;;;;;;;5070418;28;20059;-66
2022/03/24 10:33:37;;;;;;;55.22;28.70;;;;;;;;;;5073276;28;20039;-66
2022/03/24 10:36:26;;;;;;;51.38;28.60;;;;;;;;;;5078920;28;20376;-66
2022/03/24 10:39:04;;;;;;;51.20;26.27;;;;;;;;;;5068904;28;20580;-66
2022/03/24 10:41:34;;;;;;;52.70;27.23;;;;;;;;;;5070047;28;20481;-66
2022/03/24 10:44:05;;;;;;;53.03;27.48;;;;;;;;;;5071805;28;20040;-66
2022/03/24 10:46:33;;;;;;;47.90;26.33;;;;;;;;;;5069692;28;20381;-66
2022/03/24 10:49:01;;;;;;;55.58;28.60;;;;;;;;;;5070474;28;20111;-66
2022/03/24 10:51:28;;;;;;;49.78;27.15;;;;;;;;;;5074426;28;20489;-66
2022/03/24 10:54:03;;;;;;;53.65;28.30;;;;;;;;;;5068098;28;20062;-66
2022/03/24 10:56:39;;;;;;;50.08;26.20;;;;;;;;;;5070436;28;20070;-66
2022/03/24 10:59:06;;;;;;;46.13;26.40;;;;;;;;;;5079144;28;20029;-66
2022/03/24 11:01:33;;;;;;;48.33;26.00;;;;;;;;;;5068403;28;20066;-67
2022/03/24 11:03:59;;;;;;;51.33;27.35;;;;;;;;;;5064288;28;20515;-67
2022/03/24 11:06:27;;;;;;;47.92;27.95;;;;;;;;;;5066338;28;20550;-67
2022/03/24 11:08:54;;;;;;;47.67;27.75;;;;;;;;;;5071969;28;20028;-67
2022/03/24 11:11:21;;;;;;;46.38;26.70;;;;;;;;;;5074463;28;20044;-66
2022/03/24 11:13:53;;;;;;;50.90;26.48;;;;;;;;;;5084799;28;20424;-66
2022/03/24 11:16:21;;;;;;;48.22;25.48;;;;;;;;;;5074156;28;20025;-67
2022/03/24 11:18:48;;;;;;;45.53;24.98;;;;;;;;;;5064474;28;20074;-66
2022/03/24 11:21:14;;;;;;;48.55;25.67;;;;;;;;;;5071495;28;20036;-66
2022/03/24 11:23:41;;;;;;;50.10;25.60;;;;;;;;;;5069081;28;20028;-66
2022/03/24 11:26:10;;;;;;;45.95;24.92;;;;;;;;;;5070559;28;20111;-67
2022/03/24 11:28:37;;;;;;;49.83;27.38;;;;;;;;;;5068721;28;20036;-66
2022/03/24 11:31:05;;;;;;;48.13;25.92;;;;;;;;;;5067594;28;20025;-66
2022/03/24 11:33:36;;;;;;;51.85;26.05;;;;;;;;;;5073182;28;20021;-67
2022/03/24 11:36:03;;;;;;;45.97;25.02;;;;;;;;;;5066703;28;20062;-67
2022/03/24 11:38:29;;;;;;;47.97;26.40;;;;;;;;;;5075146;28;20024;-66
2022/03/24 11:41:00;;;;;;;51.55;24.15;;;;;;;;;;5075868;28;20119;-67
2022/03/24 11:43:26;;;;;;;56.85;27.00;;;;;;;;;;5072157;28;20091;-66
2022/03/24 11:45:58;;;;;;;56.70;25.80;;;;;;;;;;5076324;28;20029;-67
2022/03/24 11:48:32;;;;;;;55.80;26.50;;;;;;;;;;5075115;28;20025;-67
2022/03/24 11:50:58;;;;;;;49.85;26.15;;;;;;;;;;5069216;28;20285;-67
2022/03/24 11:53:30;;;;;;;50.50;25.75;;;;;;;;;;5072381;28;20035;-67
2022/03/24 11:55:59;;;;;;;50.05;26.38;;;;;;;;;;5080425;28;20052;-67
2022/03/24 11:58:26;;;;;;;49.58;24.90;;;;;;;;;;5082838;28;20120;-67
2022/03/24 12:00:52;;;;;;;47.08;25.15;;;;;;;;;;5082693;28;20161;-67
2022/03/24 12:03:37;;;;;;;51.33;25.63;;;;;;;;;;5079410;28;20497;-67
2022/03/24 12:06:05;;;;;;;46.20;25.50;;;;;;;;;;5079497;28;20103;-67
2022/03/24 12:08:42;;;;;;;53.83;27.67;;;;;;;;;;5073038;28;20024;-67
2022/03/24 12:11:27;;;;;;;50.35;26.08;;;;;;;;;;5077794;28;20080;-67
2022/03/24 12:13:57;;;;;;;57.67;28.45;;;;;;;;;;5075226;28;20032;-67
2022/03/24 12:16:27;;;;;;;56.65;27.55;;;;;;;;;;5076458;28;20024;-67
2022/03/24 12:18:54;;;;;;;49.67;26.73;;;;;;;;;;5075693;28;20484;-67
2022/03/24 12:21:23;;;;;;;48.08;25.83;;;;;;;;;;5068924;28;20389;-67
2022/03/24 12:24:08;;;;;;;49.65;27.35;;;;;;;;;;5082294;28;20020;-66
2022/03/24 12:26:54;;;;;;;48.33;26.48;;;;;;;;;;5070957;28;20075;-67
2022/03/24 12:29:21;;;;;;;56.38;26.70;;;;;;;;;;5076108;28;20063;-67
2022/03/24 12:32:09;;;;;;;54.92;26.60;;;;;;;;;;5073438;28;20111;-66
2022/03/24 12:34:46;;;;;;;50.22;26.55;;;;;;;;;;5079601;28;20123;-66
2022/03/24 12:37:30;;;;;;;49.40;24.90;;;;;;;;;;5079459;28;20097;-66
2022/03/24 12:40:05;;;;;;;45.42;24.80;;;;;;;;;;5084242;28;20020;-66
2022/03/24 12:42:51;;;;;;;43.45;24.90;;;;;;;;;;5082712;28;20082;-66
2022/03/24 12:45:23;;;;;;;50.13;23.88;;;;;;;;;;5075099;28;20374;-66
2022/03/24 12:47:50;;;;;;;51.08;25.13;;;;;;;;;;5072024;28;20032;-66
2022/03/24 12:50:16;;;;;;;46.10;24.70;;;;;;;;;;5071101;28;20044;-66
2022/03/24 12:52:53;;;;;;;52.88;26.02;;;;;;;;;;5076346;28;20611;-65
2022/03/24 12:55:20;;;;;;;47.45;26.00;;;;;;;;;;5077866;28;20387;-65
2022/03/24 12:57:54;;;;;;;47.50;24.92;;;;;;;;;;5082009;28;20024;-66
2022/03/24 13:00:20;;;;;;;48.53;26.27;;;;;;;;;;5069793;28;20047;-66
2022/03/24 13:02:47;;;;;;;49.55;26.15;;;;;;;;;;5071250;28;20025;-66
2022/03/24 13:05:13;;;;;;;53.58;27.98;;;;;;;;;;5076339;28;20116;-66
2022/03/24 13:07:40;;;;;;;54.45;27.65;;;;;;;;;;5076263;28;20036;-66
2022/03/24 13:10:10;;;;;;;52.08;27.27;;;;;;;;;;5078876;28;20042;-66
2022/03/24 13:12:37;;;;;;;51.75;24.52;;;;;;;;;;5079353;28;20036;-66
2022/03/24 13:15:04;;;;;;;44.28;23.20;;;;;;;;;;5078465;28;20029;-66
2022/03/24 13:17:32;;;;;;;46.67;25.65;;;;;;;;;;5077833;28;20024;-66
2022/03/24 13:20:00;;;;;;;44.88;21.95;;;;;;;;;;5067971;28;20025;-66
2022/03/24 13:22:28;;;;;;;44.88;23.40;;;;;;;;;;5074848;28;20048;-66
2022/03/24 13:25:00;;;;;;;42.25;23.25;;;;;;;;;;5074389;28;20025;-66
2022/03/24 13:27:28;;;;;;;40.38;20.35;;;;;;;;;;5071312;28;20120;-66
2022/03/24 13:29:54;;;;;;;42.53;22.08;;;;;;;;;;5078153;28;20044;-66
2022/03/24 13:32:21;;;;;;;42.17;21.30;;;;;;;;;;5071719;28;20024;-67
2022/03/24 13:35:06;;;;;;;45.35;23.15;;;;;;;;;;5074636;28;20035;-65
2022/03/24 13:37:36;;;;;;;41.15;21.50;;;;;;;;;;5068745;28;20032;-67
2022/03/24 13:40:03;;;;;;;48.42;22.08;;;;;;;;;;5072475;28;20115;-67
2022/03/24 13:42:29;;;;;;;37.95;20.67;;;;;;;;;;5072056;28;20029;-73
2022/03/24 13:44:57;;;;;;;36.92;19.45;;;;;;;;;;5072036;28;20445;-72
2022/03/24 13:47:25;;;;;;;39.92;19.15;;;;;;;;;;5068568;28;20025;-68
2022/03/24 13:50:05;;;;;;;34.80;19.35;;;;;;;;;;5067210;28;20398;-67
2022/03/24 13:52:45;;;;;;;40.70;19.02;;;;;;;;;;5070114;28;20049;-68
2022/03/24 13:55:11;;;;;;;35.05;18.70;;;;;;;;;;5069792;28;20054;-67
2022/03/24 13:57:52;;;;;;;34.90;16.60;;;;;;;;;;5069787;28;20090;-67
2022/03/24 14:00:30;;;;;;;36.95;17.70;;;;;;;;;;5067081;28;20362;-69
2022/03/24 14:02:57;;;;;;;33.67;17.27;;;;;;;;;;5068498;28;20361;-69
2022/03/24 14:05:23;;;;;;;37.33;19.58;;;;;;;;;;5069571;28;20569;-66
2022/03/24 14:07:59;;;;;;;43.05;20.42;;;;;;;;;;5070216;28;20029;-69
2022/03/24 14:10:44;;;;;;;33.85;19.15;;;;;;;;;;5062813;28;20031;-75
2022/03/24 14:13:14;;;;;;;34.63;17.45;;;;;;;;;;5080401;28;20067;-73
2022/03/24 14:15:41;;;;;;;35.90;18.75;;;;;;;;;;5069506;28;20063;-73
2022/03/24 14:18:23;;;;;;;41.60;19.45;;;;;;;;;;5073507;28;20522;-65
2022/03/24 14:20:52;;;;;;;43.45;18.98;;;;;;;;;;5066256;28;20123;-66
2022/03/24 14:23:25;;;;;;;39.22;18.50;;;;;;;;;;5081281;28;20028;-65
2022/03/24 14:25:52;;;;;;;34.60;18.35;;;;;;;;;;5080143;28;20028;-65
2022/03/24 14:28:54;;;;;;;38.17;18.73;;;;;;;;;;5076374;28;20436;-65